createdAt,value
2019-04-06T00:00:20.672Z,77.40
2019-04-06T00:02:50.218Z,77.24
2019-04-06T00:05:19.238Z,76.88
2019-04-06T00:07:48.521Z,77.10
2019-04-06T00:10:17.814Z,76.93
2019-04-06T00:12:47.358Z,76.30
2019-04-06T00:15:16.987Z,76.48
2019-04-06T00:17:46.166Z,76.21
2019-04-06T00:20:15.987Z,76.27
2019-04-06T00:22:45.835Z,76.59
2019-04-06T00:25:15.500Z,77.33
2019-04-06T00:27:45.088Z,77.14
2019-04-06T00:30:14.944Z,77.24
2019-04-06T00:32:46.075Z,77.45
2019-04-06T00:35:15.759Z,77.54
2019-04-06T00:37:45.202Z,77.52
2019-04-06T00:40:14.993Z,77.33
2019-04-06T00:42:44.617Z,77.00
2019-04-06T00:45:14.360Z,76.65
2019-04-06T00:47:43.836Z,76.46
2019-04-06T00:50:13.646Z,76.68
2019-04-06T00:52:43.135Z,77.14
2019-04-06T00:55:12.818Z,77.11
2019-04-06T00:57:42.014Z,77.38
2019-04-06T01:00:11.446Z,77.62
2019-04-06T01:02:40.980Z,77.52
2019-04-06T01:05:10.370Z,76.75
2019-04-06T01:07:39.718Z,76.45
2019-04-06T01:10:09.257Z,76.84
2019-04-06T01:12:38.778Z,77.04
2019-04-06T01:15:08.920Z,77.00
2019-04-06T01:17:38.809Z,76.44
2019-04-06T01:20:08.518Z,77.05
2019-04-06T01:22:38.243Z,77.28
2019-04-06T01:25:08.088Z,77.66
2019-04-06T01:27:37.804Z,77.77
2019-04-06T01:30:08.382Z,78.53
2019-04-06T01:32:38.023Z,78.53
2019-04-06T01:35:07.724Z,77.95
2019-04-06T01:37:37.320Z,78.14
2019-04-06T01:40:07.289Z,78.31
2019-04-06T01:42:36.549Z,77.89
2019-04-06T01:45:07.259Z,77.93
2019-04-06T01:47:36.928Z,77.63
2019-04-06T01:50:06.701Z,77.08
2019-04-06T01:52:36.342Z,76.88
2019-04-06T01:55:06.443Z,77.23
2019-04-06T01:57:36.244Z,77.04
2019-04-06T02:00:08.954Z,77.04
2019-04-06T02:02:40.059Z,76.98
2019-04-06T02:05:10.128Z,77.09
2019-04-06T02:07:39.652Z,77.26
2019-04-06T02:10:09.766Z,77.10
2019-04-06T02:12:38.834Z,77.46
2019-04-06T02:15:08.734Z,77.43
2019-04-06T02:17:38.211Z,77.97
2019-04-06T02:20:07.932Z,78.23
2019-04-06T02:22:37.384Z,78.87
2019-04-06T02:25:07.306Z,79.10
2019-04-06T02:27:37.035Z,79.05
2019-04-06T02:30:09.737Z,79.10
2019-04-06T02:32:40.944Z,78.64
2019-04-06T02:35:12.368Z,78.73
2019-04-06T02:37:43.577Z,78.48
2019-04-06T02:40:12.979Z,78.10
2019-04-06T02:42:47.157Z,78.10
2019-04-06T02:45:16.917Z,78.05
2019-04-06T02:47:46.683Z,77.65
2019-04-06T02:50:15.982Z,77.62
2019-04-06T02:52:46.008Z,77.99
2019-04-06T02:55:15.696Z,77.99
2019-04-06T02:57:44.638Z,77.85
2019-04-06T03:00:14.393Z,78.54
2019-04-06T03:02:43.597Z,78.87
2019-04-06T03:05:13.979Z,78.82
2019-04-06T03:07:43.731Z,78.50
2019-04-06T03:10:13.159Z,78.36
2019-04-06T03:12:42.661Z,78.13
2019-04-06T03:15:12.355Z,77.72
2019-04-06T03:17:41.888Z,77.93
2019-04-06T03:20:11.127Z,78.15
2019-04-06T03:22:40.669Z,78.20
2019-04-06T03:25:10.387Z,78.63
2019-04-06T03:27:39.976Z,78.20
2019-04-06T03:30:12.473Z,78.62
2019-04-06T03:32:41.761Z,79.02
2019-04-06T03:35:11.518Z,79.16
2019-04-06T03:37:41.006Z,78.99
2019-04-06T03:40:11.077Z,79.72
2019-04-06T03:42:40.740Z,80.42
2019-04-06T03:45:10.769Z,80.76
2019-04-06T03:47:40.506Z,80.34
2019-04-06T03:50:10.379Z,79.98
2019-04-06T03:52:39.567Z,80.16
2019-04-06T03:55:09.878Z,80.73
2019-04-06T03:57:39.146Z,81.12
2019-04-06T04:00:09.174Z,81.33
2019-04-06T04:02:38.678Z,81.68
2019-04-06T04:05:08.620Z,81.67
2019-04-06T04:07:38.222Z,81.53
2019-04-06T04:10:09.020Z,82.08
2019-04-06T04:12:38.393Z,82.19
2019-04-06T04:15:07.825Z,81.91
2019-04-06T04:17:37.373Z,82.05
2019-04-06T04:20:07.735Z,82.26
2019-04-06T04:22:37.289Z,82.38
2019-04-06T04:25:07.051Z,82.67
2019-04-06T04:27:38.120Z,82.90
2019-04-06T04:30:08.522Z,82.89
2019-04-06T04:32:37.927Z,83.06
2019-04-06T04:35:07.684Z,83.23
2019-04-06T04:37:37.478Z,83.45
2019-04-06T04:40:07.299Z,83.52
2019-04-06T04:42:36.889Z,83.47
2019-04-06T04:45:06.648Z,83.30
2019-04-06T04:47:36.189Z,83.17
2019-04-06T04:50:07.478Z,83.18
2019-04-06T04:52:36.842Z,83.25
2019-04-06T04:55:07.108Z,83.29
2019-04-06T04:57:41.199Z,83.27
2019-04-06T05:00:08.210Z,83.18
2019-04-06T05:02:37.362Z,83.04
2019-04-06T05:05:09.404Z,82.85
2019-04-06T05:07:39.519Z,82.67
2019-04-06T05:10:09.613Z,82.44
2019-04-06T05:12:38.847Z,82.30
2019-04-06T05:15:11.675Z,82.19
2019-04-06T05:17:41.011Z,81.96
2019-04-06T05:20:10.763Z,81.19
2019-04-06T05:22:40.333Z,81.51
2019-04-06T05:25:10.324Z,81.60
2019-04-06T05:27:50.760Z,81.49
2019-04-06T05:30:11.547Z,81.31
2019-04-06T05:32:41.013Z,80.81
2019-04-06T05:35:10.842Z,80.49
2019-04-06T05:37:40.297Z,80.01
2019-04-06T05:40:10.109Z,79.24
2019-04-06T05:42:39.564Z,79.36
2019-04-06T05:45:10.297Z,79.18
2019-04-06T05:47:39.923Z,79.13
2019-04-06T05:50:09.370Z,78.88
2019-04-06T05:52:38.588Z,77.52
2019-04-06T05:55:08.291Z,76.13
2019-04-06T05:57:38.086Z,75.62
2019-04-06T06:00:10.478Z,74.61
2019-04-06T06:02:41.302Z,74.93
2019-04-06T06:05:11.480Z,74.63
2019-04-06T06:07:41.713Z,74.12
2019-04-06T06:10:12.049Z,74.12
2019-04-06T06:12:41.925Z,72.82
2019-04-06T06:15:12.428Z,72.62
2019-04-06T06:17:42.350Z,73.78
2019-04-06T06:20:12.793Z,74.23
2019-04-06T06:22:42.809Z,73.38
2019-04-06T06:25:12.548Z,73.12
2019-04-06T06:27:42.023Z,71.90
2019-04-06T06:30:11.930Z,71.44
2019-04-06T06:32:41.453Z,71.22
2019-04-06T06:35:11.146Z,70.32
2019-04-06T06:37:40.638Z,70.46
2019-04-06T06:40:11.727Z,70.93
2019-04-06T06:42:41.344Z,71.69
2019-04-06T06:45:10.915Z,70.24
2019-04-06T06:47:40.639Z,71.39
2019-04-06T06:50:10.561Z,71.79
2019-04-06T06:52:40.198Z,72.10
2019-04-06T06:55:11.634Z,69.91
2019-04-06T06:57:44.107Z,67.98
2019-04-06T07:00:13.902Z,69.55
2019-04-06T07:02:43.484Z,70.84
2019-04-06T07:05:12.960Z,71.41
2019-04-06T07:07:44.302Z,70.22
2019-04-06T07:10:13.884Z,70.55
2019-04-06T07:12:43.100Z,68.86
2019-04-06T07:15:12.796Z,69.80
2019-04-06T07:17:42.424Z,68.19
2019-04-06T07:20:12.546Z,68.94
2019-04-06T07:22:42.249Z,65.82
2019-04-06T07:25:11.894Z,65.44
2019-04-06T07:27:41.395Z,64.75
2019-04-06T07:30:10.582Z,58.20
2019-04-06T07:32:40.376Z,56.96
2019-04-06T07:35:10.020Z,57.03
2019-04-06T07:37:39.761Z,54.69
2019-04-06T07:40:09.467Z,52.16
2019-04-06T07:42:38.974Z,52.53
2019-04-06T07:45:09.150Z,55.80
2019-04-06T07:47:38.748Z,57.80
2019-04-06T07:50:10.213Z,54.04
2019-04-06T07:52:39.828Z,51.11
2019-04-06T07:55:09.567Z,55.09
2019-04-06T07:57:38.956Z,55.04
2019-04-06T08:00:09.368Z,54.21
2019-04-06T08:02:38.865Z,55.77
2019-04-06T08:05:09.084Z,51.35
2019-04-06T08:07:38.496Z,50.17
2019-04-06T08:10:08.824Z,46.63
2019-04-06T08:12:38.547Z,46.31
2019-04-06T08:15:08.424Z,49.23
2019-04-06T08:17:38.047Z,46.60
2019-04-06T08:20:08.570Z,44.50
2019-04-06T08:22:38.184Z,45.62
2019-04-06T08:25:08.180Z,47.68
2019-04-06T08:27:37.724Z,49.18
2019-04-06T08:30:09.665Z,46.61
2019-04-06T08:32:40.476Z,48.62
2019-04-06T08:35:10.367Z,46.70
2019-04-06T08:37:39.710Z,46.72
2019-04-06T08:40:09.563Z,45.00
2019-04-06T08:42:39.066Z,50.00
2019-04-06T08:45:08.965Z,47.23
2019-04-06T08:47:38.495Z,45.81
2019-04-06T08:50:08.780Z,44.47
2019-04-06T08:52:38.920Z,44.62
2019-04-06T08:55:16.931Z,45.42
2019-04-06T08:57:46.510Z,43.29
2019-04-06T09:00:16.416Z,48.87
2019-04-06T09:02:47.757Z,49.40
2019-04-06T09:05:17.388Z,50.92
2019-04-06T09:07:46.988Z,52.54
2019-04-06T09:10:16.658Z,51.99
2019-04-06T09:12:46.314Z,50.91
2019-04-06T09:15:16.998Z,50.55
2019-04-06T09:17:46.738Z,51.41
2019-04-06T09:20:17.890Z,51.05
2019-04-06T09:22:47.399Z,49.59
2019-04-06T09:25:16.994Z,47.86
2019-04-06T09:27:46.613Z,46.38
2019-04-06T09:30:16.416Z,51.48
2019-04-06T09:32:45.998Z,53.20
2019-04-06T09:35:15.587Z,51.35
2019-04-06T09:37:45.167Z,52.26
2019-04-06T09:40:15.138Z,51.53
2019-04-06T09:42:44.805Z,51.66
2019-04-06T09:45:16.035Z,52.32
2019-04-06T09:47:47.307Z,51.73
2019-04-06T09:50:18.789Z,49.86
2019-04-06T09:52:52.442Z,50.97
2019-04-06T09:55:23.588Z,51.42
2019-04-06T09:57:54.771Z,52.57
2019-04-06T10:00:24.391Z,52.01
2019-04-06T10:02:59.959Z,52.40
2019-04-06T10:05:31.305Z,50.56
2019-04-06T10:08:02.673Z,50.82
2019-04-06T10:10:34.055Z,50.92
2019-04-06T10:13:05.384Z,50.98
2019-04-06T10:15:36.566Z,50.79
2019-04-06T10:18:07.218Z,51.87
2019-04-06T10:20:38.549Z,51.75
2019-04-06T10:23:09.586Z,50.56
2019-04-06T10:25:43.497Z,48.80
2019-04-06T10:28:14.134Z,48.96
2019-04-06T10:30:45.315Z,48.31
2019-04-06T10:33:16.762Z,48.17
2019-04-06T10:35:53.104Z,47.96
2019-04-06T10:38:22.635Z,49.68
2019-04-06T10:40:52.139Z,50.16
2019-04-06T10:43:23.238Z,49.90
2019-04-06T10:45:53.786Z,49.06
2019-04-06T10:48:26.488Z,48.54
2019-04-06T10:50:59.486Z,48.76
2019-04-06T10:53:30.883Z,48.73
2019-04-06T10:56:02.997Z,46.46
2019-04-06T10:58:34.273Z,46.69
2019-04-06T11:01:09.281Z,48.94
2019-04-06T11:03:40.472Z,48.65
2019-04-06T11:06:11.797Z,47.88
2019-04-06T11:08:42.350Z,48.68
2019-04-06T11:11:19.363Z,50.09
2019-04-06T11:13:48.671Z,48.87
2019-04-06T11:16:19.906Z,49.21
2019-04-06T11:18:56.828Z,48.99
2019-04-06T11:21:28.147Z,49.71
2019-04-06T11:23:58.518Z,47.59
2019-04-06T11:26:30.393Z,50.01
2019-04-06T11:29:01.554Z,50.01
2019-04-06T11:31:32.783Z,50.19
2019-04-06T11:34:03.930Z,50.03
2019-04-06T11:36:35.378Z,47.93
2019-04-06T11:39:09.017Z,46.44
2019-04-06T11:41:42.289Z,48.93
2019-04-06T11:44:13.454Z,47.08
2019-04-06T11:46:44.712Z,48.90
2019-04-06T11:49:15.992Z,48.11
2019-04-06T11:51:50.274Z,47.52
2019-04-06T11:54:20.908Z,46.15
2019-04-06T11:56:52.157Z,44.93
2019-04-06T11:59:23.378Z,46.03
2019-04-06T12:01:54.545Z,44.42
2019-04-06T12:04:26.066Z,46.00
2019-04-06T12:07:01.703Z,45.88
2019-04-06T12:09:33.839Z,44.52
2019-04-06T12:12:05.012Z,45.88
2019-04-06T12:14:36.141Z,45.64
2019-04-06T12:17:07.810Z,45.26
2019-04-06T12:19:37.089Z,46.05
2019-04-06T12:22:11.147Z,44.90
2019-04-06T12:24:44.115Z,46.89
2019-04-06T12:27:15.213Z,46.76
2019-04-06T12:29:46.063Z,46.25
2019-04-06T12:32:17.331Z,45.28
2019-04-06T12:34:48.563Z,46.99
2019-04-06T12:37:18.974Z,46.97
2019-04-06T12:39:53.057Z,46.01
2019-04-06T12:42:23.009Z,47.39
2019-04-06T12:44:54.156Z,47.38
2019-04-06T12:47:27.963Z,46.73
2019-04-06T12:49:59.373Z,46.13
2019-04-06T12:52:30.685Z,45.80
2019-04-06T12:55:01.905Z,44.95
2019-04-06T12:57:33.136Z,44.93
2019-04-06T13:00:04.357Z,46.20
2019-04-06T13:02:35.672Z,46.88
2019-04-06T13:05:12.384Z,46.13
2019-04-06T13:07:42.412Z,45.51
2019-04-06T13:10:13.634Z,45.92
2019-04-06T13:12:44.632Z,44.42
2019-04-06T13:15:18.184Z,45.19
2019-04-06T13:17:49.545Z,45.00
2019-04-06T13:20:20.802Z,45.17
2019-04-06T13:22:51.999Z,45.62
2019-04-06T13:25:22.439Z,45.84
2019-04-06T13:27:52.849Z,45.14
2019-04-06T13:30:24.103Z,45.73
2019-04-06T13:32:57.249Z,45.50
2019-04-06T13:35:32.523Z,44.63
2019-04-06T13:38:03.869Z,44.00
2019-04-06T13:40:34.929Z,43.69
2019-04-06T13:43:05.823Z,44.40
2019-04-06T13:45:40.373Z,44.21
2019-04-06T13:48:11.552Z,43.70
2019-04-06T13:50:42.997Z,44.08
2019-04-06T13:53:13.334Z,43.26
2019-04-06T13:55:44.487Z,43.48
2019-04-06T13:58:15.873Z,43.08
2019-04-06T14:00:47.811Z,42.70
2019-04-06T14:03:21.515Z,43.88
2019-04-06T14:05:51.973Z,44.12
2019-04-06T14:08:25.132Z,42.93
2019-04-06T14:10:56.265Z,43.58
2019-04-06T14:13:27.813Z,43.28
2019-04-06T14:15:58.320Z,42.82
2019-04-06T14:18:29.564Z,43.63
2019-04-06T14:21:03.557Z,43.32
2019-04-06T14:23:32.953Z,41.51
2019-04-06T14:26:03.207Z,41.91
2019-04-06T14:28:34.415Z,40.75
2019-04-06T14:31:04.953Z,40.63
2019-04-06T14:33:37.200Z,40.55
2019-04-06T14:36:11.037Z,40.35
2019-04-06T14:38:44.959Z,41.09
2019-04-06T14:41:16.783Z,41.77
2019-04-06T14:43:48.192Z,40.86
2019-04-06T14:46:19.473Z,41.26
2019-04-06T14:48:51.111Z,41.22
2019-04-06T14:51:22.662Z,41.22
2019-04-06T14:53:53.753Z,40.44
2019-04-06T14:56:24.919Z,40.46
2019-04-06T14:58:56.177Z,40.74
2019-04-06T15:01:38.473Z,40.74
2019-04-06T15:04:00.413Z,39.49
2019-04-06T15:06:34.363Z,39.66
2019-04-06T15:09:09.898Z,39.54
2019-04-06T15:11:40.990Z,40.05
2019-04-06T15:14:14.928Z,39.62
2019-04-06T15:16:46.446Z,39.33
2019-04-06T15:19:18.233Z,39.94
2019-04-06T15:21:49.486Z,39.78
2019-04-06T15:24:21.175Z,39.43
2019-04-06T15:26:52.345Z,39.22
2019-04-06T15:29:26.378Z,40.25
2019-04-06T15:31:57.655Z,39.52
2019-04-06T15:34:28.341Z,40.31
2019-04-06T15:37:00.063Z,41.22
2019-04-06T15:39:30.455Z,41.56
2019-04-06T15:42:01.590Z,41.55
2019-04-06T15:44:32.756Z,41.79
2019-04-06T15:47:03.930Z,41.87
2019-04-06T15:49:35.112Z,42.09
2019-04-06T15:52:12.245Z,42.18
2019-04-06T15:54:39.274Z,42.94
2019-04-06T15:57:11.203Z,42.28
2019-04-06T15:59:47.860Z,42.77
2019-04-06T16:02:21.500Z,42.90
2019-04-06T16:04:55.415Z,42.92
2019-04-06T16:07:33.816Z,42.88
2019-04-06T16:10:06.547Z,42.96
2019-04-06T16:12:37.765Z,42.75
2019-04-06T16:15:13.957Z,42.95
2019-04-06T16:17:45.561Z,43.18
2019-04-06T16:20:17.298Z,44.19
2019-04-06T16:22:49.096Z,43.49
2019-04-06T16:25:20.316Z,43.78
2019-04-06T16:27:57.019Z,43.88
2019-04-06T16:30:37.444Z,43.87
2019-04-06T16:33:09.622Z,43.91
2019-04-06T16:35:40.791Z,44.29
2019-04-06T16:38:12.233Z,43.90
2019-04-06T16:40:41.620Z,44.20
2019-04-06T16:43:13.140Z,44.46
2019-04-06T16:45:46.895Z,44.38
2019-04-06T16:48:27.701Z,44.69
2019-04-06T16:50:58.922Z,44.77
2019-04-06T16:53:30.069Z,44.98
2019-04-06T16:56:01.249Z,45.14
2019-04-06T16:58:31.688Z,45.38
2019-04-06T17:01:02.902Z,45.87
2019-04-06T17:03:34.044Z,45.73
2019-04-06T17:06:08.158Z,45.97
2019-04-06T17:08:39.417Z,46.09
2019-04-06T17:11:10.718Z,46.07
2019-04-06T17:13:41.972Z,46.29
2019-04-06T17:16:12.394Z,46.29
2019-04-06T17:18:43.714Z,46.63
2019-04-06T17:21:17.028Z,46.78
2019-04-06T17:23:47.911Z,47.33
2019-04-06T17:26:19.203Z,47.09
2019-04-06T17:28:50.395Z,47.52
2019-04-06T17:31:21.844Z,47.63
2019-04-06T17:33:53.197Z,47.50
2019-04-06T17:36:22.499Z,47.94
2019-04-06T17:38:53.756Z,48.33
2019-04-06T17:41:25.431Z,48.39
2019-04-06T17:43:56.667Z,48.71
2019-04-06T17:46:27.984Z,48.82
2019-04-06T17:48:59.234Z,48.84
2019-04-06T17:51:30.396Z,49.27
2019-04-06T17:54:01.633Z,49.59
2019-04-06T17:56:33.253Z,49.58
2019-04-06T17:59:03.025Z,50.36
2019-04-06T18:01:34.295Z,50.97
2019-04-06T18:04:05.447Z,51.12
2019-04-06T18:06:37.330Z,51.11
2019-04-06T18:09:10.274Z,51.49
2019-04-06T18:11:41.358Z,51.95
2019-04-06T18:14:11.173Z,52.16
2019-04-06T18:16:40.807Z,52.48
2019-04-06T18:19:10.370Z,52.70
2019-04-06T18:21:39.989Z,52.89
2019-04-06T18:24:09.542Z,53.02
2019-04-06T18:26:38.712Z,53.58
2019-04-06T18:29:08.531Z,53.10
2019-04-06T18:31:39.762Z,53.13
2019-04-06T18:34:09.370Z,52.91
2019-04-06T18:36:40.552Z,53.23
2019-04-06T18:39:11.839Z,52.98
2019-04-06T18:41:41.391Z,53.09
2019-04-06T18:44:11.304Z,53.16
2019-04-06T18:46:40.780Z,53.25
2019-04-06T18:49:10.256Z,53.66
2019-04-06T18:51:39.717Z,53.71
2019-04-06T18:54:09.896Z,53.58
2019-04-06T18:56:39.430Z,54.13
2019-04-06T18:59:10.476Z,54.02
2019-04-06T19:01:40.404Z,54.10
2019-04-06T19:04:10.447Z,54.28
2019-04-06T19:06:40.033Z,54.35
2019-04-06T19:09:20.780Z,54.58
2019-04-06T19:11:53.241Z,55.02
2019-04-06T19:14:13.107Z,55.19
2019-04-06T19:16:42.563Z,55.30
2019-04-06T19:19:12.595Z,55.88
2019-04-06T19:21:43.240Z,55.67
2019-04-06T19:24:13.786Z,56.31
2019-04-06T19:26:43.477Z,56.38
2019-04-06T19:29:16.090Z,56.63
2019-04-06T19:31:46.009Z,56.92
2019-04-06T19:34:15.774Z,57.30
2019-04-06T19:36:45.419Z,57.66
2019-04-06T19:39:15.182Z,57.31
2019-04-06T19:41:44.192Z,57.71
2019-04-06T19:44:13.535Z,57.95
2019-04-06T19:46:43.295Z,58.06
2019-04-06T19:49:13.026Z,57.81
2019-04-06T19:51:43.017Z,57.71
2019-04-06T19:54:12.317Z,57.51
2019-04-06T19:56:41.511Z,57.08
2019-04-06T19:59:12.948Z,57.29
2019-04-06T20:01:42.490Z,57.20
2019-04-06T20:04:12.055Z,57.19
2019-04-06T20:06:42.078Z,57.49
2019-04-06T20:09:11.728Z,57.74
2019-04-06T20:11:41.248Z,57.86
2019-04-06T20:14:10.781Z,57.99
2019-04-06T20:16:40.726Z,57.85
2019-04-06T20:19:10.319Z,57.71
2019-04-06T20:21:39.819Z,57.46
2019-04-06T20:24:09.612Z,57.37
2019-04-06T20:26:40.094Z,57.68
2019-04-06T20:29:09.903Z,57.34
2019-04-06T20:31:39.646Z,57.21
2019-04-06T20:34:09.094Z,57.82
2019-04-06T20:36:38.610Z,57.84
2019-04-06T20:39:09.346Z,57.53
2019-04-06T20:41:38.851Z,57.47
2019-04-06T20:44:08.643Z,57.27
2019-04-06T20:46:38.680Z,56.88
2019-04-06T20:49:09.201Z,57.02
2019-04-06T20:51:38.985Z,56.98
2019-04-06T20:54:09.061Z,57.22
2019-04-06T20:56:38.744Z,57.04
2019-04-06T20:59:07.962Z,56.85
2019-04-06T21:01:37.315Z,57.32
2019-04-06T21:04:06.943Z,57.42
2019-04-06T21:06:37.045Z,57.32
2019-04-06T21:09:09.177Z,57.70
2019-04-06T21:11:39.270Z,57.81
2019-04-06T21:14:09.074Z,57.65
2019-04-06T21:16:38.938Z,58.13
2019-04-06T21:19:09.137Z,58.31
2019-04-06T21:21:38.700Z,57.96
2019-04-06T21:24:08.091Z,58.49
2019-04-06T21:26:38.032Z,58.23
2019-04-06T21:29:07.966Z,58.59
2019-04-06T21:31:37.565Z,58.92
2019-04-06T21:34:11.869Z,58.90
2019-04-06T21:36:38.304Z,59.64
2019-04-06T21:39:08.338Z,59.87
2019-04-06T21:41:37.483Z,59.85
2019-04-06T21:44:07.542Z,59.88
2019-04-06T21:46:39.257Z,59.90
2019-04-06T21:49:11.273Z,60.27
2019-04-06T21:51:40.825Z,60.52
2019-04-06T21:54:10.114Z,60.56
2019-04-06T21:56:39.578Z,61.08
2019-04-06T21:59:09.150Z,61.12
2019-04-06T22:01:40.047Z,61.31
2019-04-06T22:04:17.563Z,60.93
2019-04-06T22:06:41.364Z,61.10
2019-04-06T22:09:12.743Z,61.37
2019-04-06T22:11:42.448Z,61.54
2019-04-06T22:14:12.476Z,62.13
2019-04-06T22:16:43.049Z,62.37
2019-04-06T22:19:12.791Z,62.72
2019-04-06T22:21:42.903Z,63.08
2019-04-06T22:24:12.455Z,63.28
2019-04-06T22:26:41.982Z,63.22
2019-04-06T22:29:11.795Z,62.50
2019-04-06T22:31:41.552Z,62.01
2019-04-06T22:36:51.586Z,62.07
2019-04-06T22:39:21.542Z,62.13
2019-04-06T22:41:50.961Z,62.00
2019-04-06T22:44:21.038Z,62.19
2019-04-06T22:46:51.411Z,62.60
2019-04-06T22:49:20.575Z,62.84
2019-04-06T22:51:50.056Z,62.99
2019-04-06T22:54:19.668Z,62.62
2019-04-06T22:56:49.565Z,62.45
2019-04-06T22:59:19.050Z,62.25
2019-04-06T23:01:49.436Z,62.12
2019-04-06T23:04:20.666Z,62.46
2019-04-06T23:06:52.455Z,62.33
2019-04-06T23:09:22.481Z,62.48
2019-04-06T23:11:52.585Z,62.48
2019-04-06T23:14:22.459Z,62.77
2019-04-06T23:16:51.948Z,63.24
2019-04-06T23:19:21.456Z,63.62
2019-04-06T23:21:51.010Z,63.50
2019-04-06T23:24:20.475Z,63.34
2019-04-06T23:26:49.952Z,63.37
2019-04-06T23:29:19.537Z,63.74
2019-04-06T23:31:49.528Z,63.90
2019-04-06T23:34:19.222Z,63.46
2019-04-06T23:36:48.195Z,63.44
2019-04-06T23:39:18.398Z,63.52
2019-04-06T23:41:48.401Z,63.46
2019-04-06T23:44:18.452Z,63.79
2019-04-06T23:46:48.164Z,63.98
2019-04-06T23:49:18.186Z,63.63
2019-04-06T23:51:47.765Z,63.55
2019-04-06T23:54:17.281Z,63.16
2019-04-06T23:56:47.498Z,62.98
2019-04-06T23:59:17.607Z,62.86
